sensor_id;sensor_type;location;lat;lon;timestamp;pressure;altitude;pressure_sealevel;temperature;humidity
10014;BME280;45684;48.358;10.746;2022-07-29T00:02:04;96093.59;;;20.29;100.00
10014;BME280;45684;48.358;10.746;2022-07-29T00:04:34;96078.72;;;20.34;100.00
10014;BME280;45684;48.358;10.746;2022-07-29T00:07:03;96064.63;;;20.39;100.00
10014;BME280;45684;48.358;10.746;2022-07-29T00:09:32;96048.16;;;20.43;100.00
10014;BME280;45684;48.358;10.746;2022-07-29T00:12:18;96050.09;;;20.42;100.00
10014;BME280;45684;48.358;10.746;2022-07-29T00:14:52;96049.34;;;20.45;100.00
10014;BME280;45684;48.358;10.746;2022-07-29T00:17:20;96052.41;;;20.29;100.00
10014;BME280;45684;48.358;10.746;2022-07-29T00:19:48;96067.59;;;20.16;100.00
10014;BME280;45684;48.358;10.746;2022-07-29T00:22:15;96070.19;;;19.98;100.00
10014;BME280;45684;48.358;10.746;2022-07-29T00:24:47;96064.63;;;19.87;100.00
10014;BME280;45684;48.358;10.746;2022-07-29T00:27:15;96053.28;;;19.93;100.00
10014;BME280;45684;48.358;10.746;2022-07-29T00:29:42;96052.50;;;19.92;100.00
10014;BME280;45684;48.358;10.746;2022-07-29T00:32:10;96050.09;;;19.87;100.00
10014;BME280;45684;48.358;10.746;2022-07-29T00:34:38;96048.06;;;19.80;100.00
10014;BME280;45684;48.358;10.746;2022-07-29T00:37:24;96052.44;;;19.85;100.00
10014;BME280;45684;48.358;10.746;2022-07-29T00:39:53;96050.81;;;19.80;100.00
10014;BME280;45684;48.358;10.746;2022-07-29T00:42:21;96058.69;;;19.82;100.00
10014;BME280;45684;48.358;10.746;2022-07-29T00:44:49;96053.13;;;19.75;100.00
10014;BME280;45684;48.358;10.746;2022-07-29T00:47:17;96059.00;;;19.73;100.00
10014;BME280;45684;48.358;10.746;2022-07-29T00:49:45;96059.28;;;19.61;100.00
10014;BME280;45684;48.358;10.746;2022-07-29T00:52:13;96058.41;;;19.57;100.00
10014;BME280;45684;48.358;10.746;2022-07-29T00:54:42;96066.59;;;19.50;100.00
10014;BME280;45684;48.358;10.746;2022-07-29T00:57:12;96057.94;;;19.48;100.00
10014;BME280;45684;48.358;10.746;2022-07-29T00:59:43;96053.19;;;19.41;100.00
10014;BME280;45684;48.358;10.746;2022-07-29T01:02:11;96050.78;;;19.40;100.00
10014;BME280;45684;48.358;10.746;2022-07-29T01:04:40;96049.59;;;19.37;100.00
10014;BME280;45684;48.358;10.746;2022-07-29T01:07:08;96047.31;;;19.43;100.00
10014;BME280;45684;48.358;10.746;2022-07-29T01:09:37;96047.31;;;19.43;100.00
10014;BME280;45684;48.358;10.746;2022-07-29T01:12:16;96046.91;;;19.44;100.00
10014;BME280;45684;48.358;10.746;2022-07-29T01:14:45;96050.44;;;19.41;100.00
10014;BME280;45684;48.358;10.746;2022-07-29T01:17:18;96028.53;;;19.45;100.00
10014;BME280;45684;48.358;10.746;2022-07-29T01:19:51;96030.88;;;19.46;100.00
10014;BME280;45684;48.358;10.746;2022-07-29T01:22:35;96023.88;;;19.52;100.00
10014;BME280;45684;48.358;10.746;2022-07-29T01:25:19;96023.03;;;19.45;100.00
10014;BME280;45684;48.358;10.746;2022-07-29T01:28:13;96006.13;;;19.39;100.00
10014;BME280;45684;48.358;10.746;2022-07-29T01:30:51;96007.28;;;19.38;100.00
10014;BME280;45684;48.358;10.746;2022-07-29T01:33:21;96005.69;;;19.33;100.00
10014;BME280;45684;48.358;10.746;2022-07-29T01:36:13;96004.09;;;19.32;100.00
10014;BME280;45684;48.358;10.746;2022-07-29T01:38:48;96011.91;;;19.27;100.00
10014;BME280;45684;48.358;10.746;2022-07-29T01:41:19;96014.09;;;19.14;100.00
10014;BME280;45684;48.358;10.746;2022-07-29T01:43:52;96015.63;;;19.08;100.00
10014;BME280;45684;48.358;10.746;2022-07-29T01:46:28;96010.16;;;19.11;100.00
10014;BME280;45684;48.358;10.746;2022-07-29T01:49:02;96002.81;;;19.19;100.00
10014;BME280;45684;48.358;10.746;2022-07-29T01:51:40;95999.31;;;19.22;100.00
10014;BME280;45684;48.358;10.746;2022-07-29T01:54:12;96000.09;;;19.23;100.00
10014;BME280;45684;48.358;10.746;2022-07-29T01:56:42;95989.81;;;19.16;100.00
10014;BME280;45684;48.358;10.746;2022-07-29T01:59:11;95985.94;;;19.17;100.00
10014;BME280;45684;48.358;10.746;2022-07-29T02:01:42;95985.19;;;19.20;100.00
10014;BME280;45684;48.358;10.746;2022-07-29T02:04:12;95988.25;;;19.15;100.00
10014;BME280;45684;48.358;10.746;2022-07-29T02:06:58;95994.50;;;19.12;100.00
10014;BME280;45684;48.358;10.746;2022-07-29T02:09:29;95984.69;;;19.11;100.00
10014;BME280;45684;48.358;10.746;2022-07-29T02:12:00;95986.25;;;19.08;100.00
10014;BME280;45684;48.358;10.746;2022-07-29T02:14:33;95977.25;;;19.08;100.00
10014;BME280;45684;48.358;10.746;2022-07-29T02:17:03;95976.81;;;19.06;100.00
10014;BME280;45684;48.358;10.746;2022-07-29T02:19:32;95981.06;;;19.00;100.00
10014;BME280;45684;48.358;10.746;2022-07-29T02:22:00;95979.06;;;18.97;100.00
10014;BME280;45684;48.358;10.746;2022-07-29T02:24:30;95981.81;;;18.97;100.00
10014;BME280;45684;48.358;10.746;2022-07-29T02:26:59;95981.41;;;18.95;100.00
10014;BME280;45684;48.358;10.746;2022-07-29T02:29:30;95977.38;;;18.85;100.00
10014;BME280;45684;48.358;10.746;2022-07-29T02:31:58;95982.84;;;18.85;100.00
10014;BME280;45684;48.358;10.746;2022-07-29T02:34:29;95970.78;;;18.90;100.00
10014;BME280;45684;48.358;10.746;2022-07-29T02:36:58;95970.78;;;18.90;100.00
10014;BME280;45684;48.358;10.746;2022-07-29T02:39:27;95971.91;;;18.85;100.00
10014;BME280;45684;48.358;10.746;2022-07-29T02:42:00;95965.63;;;18.84;100.00
10014;BME280;45684;48.358;10.746;2022-07-29T02:44:29;95967.53;;;18.80;100.00
10014;BME280;45684;48.358;10.746;2022-07-29T02:47:05;95977.34;;;18.81;100.00
10014;BME280;45684;48.358;10.746;2022-07-29T02:49:37;95980.41;;;18.76;100.00
10014;BME280;45684;48.358;10.746;2022-07-29T02:52:08;95976.50;;;18.77;100.00
10014;BME280;45684;48.358;10.746;2022-07-29T02:54:44;95978.06;;;18.78;100.00
10014;BME280;45684;48.358;10.746;2022-07-29T02:57:19;95981.56;;;18.75;100.00
10014;BME280;45684;48.358;10.746;2022-07-29T02:59:50;95979.16;;;18.70;100.00
10014;BME280;45684;48.358;10.746;2022-07-29T03:02:20;95979.03;;;18.63;100.00
10014;BME280;45684;48.358;10.746;2022-07-29T03:04:50;95981.03;;;18.66;100.00
10014;BME280;45684;48.358;10.746;2022-07-29T03:07:20;95984.53;;;18.63;100.00
10014;BME280;45684;48.358;10.746;2022-07-29T03:09:49;95982.94;;;18.62;100.00
10014;BME280;45684;48.358;10.746;2022-07-29T03:12:18;95981.72;;;18.59;100.00
10014;BME280;45684;48.358;10.746;2022-07-29T03:14:46;95982.16;;;18.61;100.00
10014;BME280;45684;48.358;10.746;2022-07-29T03:17:15;95987.59;;;18.58;100.00
10014;BME280;45684;48.358;10.746;2022-07-29T03:19:43;95990.38;;;18.61;100.00
10014;BME280;45684;48.358;10.746;2022-07-29T03:22:13;95995.41;;;18.56;100.00
10014;BME280;45684;48.358;10.746;2022-07-29T03:24:44;95992.19;;;18.50;100.00
10014;BME280;45684;48.358;10.746;2022-07-29T03:27:13;95982.72;;;18.44;100.00
10014;BME280;45684;48.358;10.746;2022-07-29T03:29:40;95984.72;;;18.47;100.00
10014;BME280;45684;48.358;10.746;2022-07-29T03:32:15;95990.16;;;18.44;100.00
10014;BME280;45684;48.358;10.746;2022-07-29T03:34:50;95987.03;;;18.45;100.00
10014;BME280;45684;48.358;10.746;2022-07-29T03:37:20;95990.66;;;18.53;100.00
10014;BME280;45684;48.358;10.746;2022-07-29T03:39:49;95989.88;;;18.52;100.00
10014;BME280;45684;48.358;10.746;2022-07-29T03:42:19;96000.25;;;18.40;100.00
10014;BME280;45684;48.358;10.746;2022-07-29T03:44:50;96000.66;;;18.42;100.00
10014;BME280;45684;48.358;10.746;2022-07-29T03:47:21;96000.66;;;18.42;100.00
10014;BME280;45684;48.358;10.746;2022-07-29T03:50:11;96000.38;;;18.47;100.00
10014;BME280;45684;48.358;10.746;2022-07-29T03:52:43;96005.78;;;18.43;100.00
10014;BME280;45684;48.358;10.746;2022-07-29T03:55:11;96016.69;;;18.40;100.00
10014;BME280;45684;48.358;10.746;2022-07-29T03:57:39;96008.06;;;18.38;100.00
10014;BME280;45684;48.358;10.746;2022-07-29T04:00:08;96020.81;;;18.26;100.00
10014;BME280;45684;48.358;10.746;2022-07-29T04:02:37;96015.28;;;18.23;100.00
10014;BME280;45684;48.358;10.746;2022-07-29T04:05:11;96023.91;;;18.25;100.00
10014;BME280;45684;48.358;10.746;2022-07-29T04:07:39;96016.88;;;18.24;100.00
10014;BME280;45684;48.358;10.746;2022-07-29T04:10:09;96020.75;;;18.23;100.00
10014;BME280;45684;48.358;10.746;2022-07-29T04:12:37;96021.06;;;18.18;100.00
10014;BME280;45684;48.358;10.746;2022-07-29T04:15:05;96022.28;;;18.20;100.00
10014;BME280;45684;48.358;10.746;2022-07-29T04:17:33;96019.22;;;18.25;100.00
10014;BME280;45684;48.358;10.746;2022-07-29T04:20:01;96024.66;;;18.22;100.00
10014;BME280;45684;48.358;10.746;2022-07-29T04:22:29;96025.34;;;18.15;100.00
10014;BME280;45684;48.358;10.746;2022-07-29T04:24:57;96027.28;;;18.15;100.00
10014;BME280;45684;48.358;10.746;2022-07-29T04:27:31;96030.06;;;18.18;100.00
10014;BME280;45684;48.358;10.746;2022-07-29T04:29:59;96035.53;;;18.18;100.00
10014;BME280;45684;48.358;10.746;2022-07-29T04:32:26;96039.09;;;18.19;100.00
10014;BME280;45684;48.358;10.746;2022-07-29T04:34:54;96051.13;;;18.14;100.00
10014;BME280;45684;48.358;10.746;2022-07-29T04:37:22;96053.13;;;18.17;100.00
10014;BME280;45684;48.358;10.746;2022-07-29T04:39:50;96057.09;;;18.20;100.00
10014;BME280;45684;48.358;10.746;2022-07-29T04:42:18;96064.53;;;18.23;100.00
10014;BME280;45684;48.358;10.746;2022-07-29T04:44:54;96056.81;;;18.28;100.00
10014;BME280;45684;48.358;10.746;2022-07-29T04:47:22;96059.59;;;18.32;100.00
10014;BME280;45684;48.358;10.746;2022-07-29T04:49:50;96059.28;;;18.37;100.00
10014;BME280;45684;48.358;10.746;2022-07-29T04:52:18;96062.50;;;18.43;100.00
10014;BME280;45684;48.358;10.746;2022-07-29T04:54:46;96064.47;;;18.42;100.00
10014;BME280;45684;48.358;10.746;2022-07-29T04:57:14;96071.13;;;18.45;100.00
10014;BME280;45684;48.358;10.746;2022-07-29T04:59:42;96070.75;;;18.46;100.00
10014;BME280;45684;48.358;10.746;2022-07-29T05:02:11;96067.75;;;18.55;100.00
10014;BME280;45684;48.358;10.746;2022-07-29T05:04:39;96065.91;;;18.63;100.00
10014;BME280;45684;48.358;10.746;2022-07-29T05:07:07;96067.28;;;18.76;100.00
10014;BME280;45684;48.358;10.746;2022-07-29T05:09:35;96075.56;;;18.79;100.00
10014;BME280;45684;48.358;10.746;2022-07-29T05:12:03;96072.91;;;18.86;100.00
10014;BME280;45684;48.358;10.746;2022-07-29T05:14:31;96064.41;;;18.95;100.00
10014;BME280;45684;48.358;10.746;2022-07-29T05:16:59;96068.75;;;19.00;100.00
10014;BME280;45684;48.358;10.746;2022-07-29T05:19:28;96070.00;;;19.06;100.00
10014;BME280;45684;48.358;10.746;2022-07-29T05:21:56;96068.09;;;19.10;100.00
10014;BME280;45684;48.358;10.746;2022-07-29T05:24:23;96069.72;;;19.15;100.00
10014;BME280;45684;48.358;10.746;2022-07-29T05:26:51;96068.97;;;19.18;100.00
10014;BME280;45684;48.358;10.746;2022-07-29T05:29:19;96073.28;;;19.19;100.00
10014;BME280;45684;48.358;10.746;2022-07-29T05:32:07;96071.00;;;19.24;100.00
10014;BME280;45684;48.358;10.746;2022-07-29T05:34:36;96082.41;;;19.30;100.00
10014;BME280;45684;48.358;10.746;2022-07-29T05:37:17;96087.13;;;19.29;100.00
10014;BME280;45684;48.358;10.746;2022-07-29T05:39:45;96076.16;;;19.29;100.00
10014;BME280;45684;48.358;10.746;2022-07-29T05:42:16;96081.69;;;19.33;100.00
10014;BME280;45684;48.358;10.746;2022-07-29T05:44:44;96077.44;;;19.39;100.00
10014;BME280;45684;48.358;10.746;2022-07-29T05:47:12;96080.25;;;19.46;100.00
10014;BME280;45684;48.358;10.746;2022-07-29T05:49:41;96073.00;;;19.61;100.00
10014;BME280;45684;48.358;10.746;2022-07-29T05:52:09;96068.72;;;19.67;100.00
10014;BME280;45684;48.358;10.746;2022-07-29T05:54:37;96072.34;;;19.75;100.00
10014;BME280;45684;48.358;10.746;2022-07-29T05:57:05;96061.75;;;19.77;100.00
10014;BME280;45684;48.358;10.746;2022-07-29T05:59:35;96068.03;;;19.74;100.00
10014;BME280;45684;48.358;10.746;2022-07-29T06:02:03;96067.31;;;19.84;100.00
10014;BME280;45684;48.358;10.746;2022-07-29T06:04:31;96075.59;;;19.87;100.00
10014;BME280;45684;48.358;10.746;2022-07-29T06:07:01;96079.88;;;19.85;100.00
10014;BME280;45684;48.358;10.746;2022-07-29T06:09:29;96082.28;;;19.90;100.00
10014;BME280;45684;48.358;10.746;2022-07-29T06:11:57;96083.97;;;20.02;100.00
10014;BME280;45684;48.358;10.746;2022-07-29T06:14:25;96083.28;;;20.16;100.00
10014;BME280;45684;48.358;10.746;2022-07-29T06:16:53;96087.25;;;20.22;100.00
10014;BME280;45684;48.358;10.746;2022-07-29T06:19:21;96090.38;;;20.20;100.00
10014;BME280;45684;48.358;10.746;2022-07-29T06:21:49;96087.22;;;20.18;100.00
10014;BME280;45684;48.358;10.746;2022-07-29T06:24:18;96088.81;;;20.19;100.00
10014;BME280;45684;48.358;10.746;2022-07-29T06:26:46;96098.22;;;20.22;100.00
10014;BME280;45684;48.358;10.746;2022-07-29T06:29:14;96092.31;;;20.16;100.00
10014;BME280;45684;48.358;10.746;2022-07-29T06:31:41;96095.16;;;20.30;100.00
10014;BME280;45684;48.358;10.746;2022-07-29T06:34:09;96093.59;;;20.33;100.00
10014;BME280;45684;48.358;10.746;2022-07-29T06:36:37;96090.53;;;20.38;100.00
10014;BME280;45684;48.358;10.746;2022-07-29T06:39:07;96102.22;;;20.31;100.00
10014;BME280;45684;48.358;10.746;2022-07-29T06:41:38;96102.22;;;20.31;100.00
10014;BME280;45684;48.358;10.746;2022-07-29T06:44:09;96098.38;;;20.39;100.00
10014;BME280;45684;48.358;10.746;2022-07-29T06:46:36;96104.00;;;20.54;100.00
10014;BME280;45684;48.358;10.746;2022-07-29T06:49:04;96104.78;;;20.54;100.00
10014;BME280;45684;48.358;10.746;2022-07-29T06:51:32;96101.22;;;20.50;100.00
10014;BME280;45684;48.358;10.746;2022-07-29T06:54:01;96109.88;;;20.56;100.00
10014;BME280;45684;48.358;10.746;2022-07-29T06:56:32;96102.56;;;20.78;100.00
10014;BME280;45684;48.358;10.746;2022-07-29T06:59:07;96108.78;;;20.68;100.00
10014;BME280;45684;48.358;10.746;2022-07-29T07:01:36;96110.75;;;20.67;100.00
10014;BME280;45684;48.358;10.746;2022-07-29T07:04:04;96111.81;;;20.48;100.00
10014;BME280;45684;48.358;10.746;2022-07-29T07:06:32;96116.97;;;20.57;100.00
10014;BME280;45684;48.358;10.746;2022-07-29T07:09:00;96123.75;;;20.74;100.00
10014;BME280;45684;48.358;10.746;2022-07-29T07:11:28;96122.22;;;20.83;100.00
10014;BME280;45684;48.358;10.746;2022-07-29T07:13:56;96120.75;;;21.00;100.00
10014;BME280;45684;48.358;10.746;2022-07-29T07:16:31;96118.47;;;21.17;100.00
10014;BME280;45684;48.358;10.746;2022-07-29T07:18:59;96120.88;;;21.22;100.00
10014;BME280;45684;48.358;10.746;2022-07-29T07:21:28;96122.53;;;21.37;100.00
10014;BME280;45684;48.358;10.746;2022-07-29T07:23:57;96127.31;;;21.58;100.00
10014;BME280;45684;48.358;10.746;2022-07-29T07:26:25;96129.72;;;21.77;100.00
10014;BME280;45684;48.358;10.746;2022-07-29T07:28:53;96129.72;;;21.84;100.00
10014;BME280;45684;48.358;10.746;2022-07-29T07:31:21;96126.59;;;22.00;100.00
10014;BME280;45684;48.358;10.746;2022-07-29T07:33:50;96125.88;;;22.18;100.00
10014;BME280;45684;48.358;10.746;2022-07-29T07:36:19;96129.81;;;22.31;100.00
10014;BME280;45684;48.358;10.746;2022-07-29T07:38:47;96124.69;;;22.33;100.00
10014;BME280;45684;48.358;10.746;2022-07-29T07:41:15;96127.84;;;22.49;100.00
10014;BME280;45684;48.358;10.746;2022-07-29T07:43:43;96140.44;;;22.57;98.97
10014;BME280;45684;48.358;10.746;2022-07-29T07:46:11;96137.69;;;22.57;98.81
10014;BME280;45684;48.358;10.746;2022-07-29T07:48:38;96140.44;;;22.47;97.76
10014;BME280;45684;48.358;10.746;2022-07-29T07:51:08;96136.09;;;22.60;99.41
10014;BME280;45684;48.358;10.746;2022-07-29T07:53:36;96139.25;;;22.73;99.53
10014;BME280;45684;48.358;10.746;2022-07-29T07:56:04;96137.28;;;22.59;97.97
10014;BME280;45684;48.358;10.746;2022-07-29T07:58:37;96142.00;;;22.55;99.29
10014;BME280;45684;48.358;10.746;2022-07-29T08:01:05;96137.66;;;22.61;99.53
10014;BME280;45684;48.358;10.746;2022-07-29T08:03:36;96129.41;;;22.68;99.42
10014;BME280;45684;48.358;10.746;2022-07-29T08:06:05;96135.28;;;22.70;100.00
10014;BME280;45684;48.358;10.746;2022-07-29T08:08:34;96137.69;;;22.57;100.00
10014;BME280;45684;48.358;10.746;2022-07-29T08:11:02;96141.22;;;22.51;99.11
10014;BME280;45684;48.358;10.746;2022-07-29T08:13:36;96142.78;;;22.55;98.04
10014;BME280;45684;48.358;10.746;2022-07-29T08:16:05;96145.53;;;22.52;100.00
10014;BME280;45684;48.358;10.746;2022-07-29T08:18:40;96139.25;;;22.55;99.24
10014;BME280;45684;48.358;10.746;2022-07-29T08:21:08;96143.19;;;22.47;98.32
10014;BME280;45684;48.358;10.746;2022-07-29T08:23:37;96145.16;;;22.50;97.13
10014;BME280;45684;48.358;10.746;2022-07-29T08:26:14;96153.03;;;22.37;97.65
10014;BME280;45684;48.358;10.746;2022-07-29T08:28:44;96143.97;;;22.61;99.78
10014;BME280;45684;48.358;10.746;2022-07-29T08:31:15;96148.28;;;22.70;100.00
10014;BME280;45684;48.358;10.746;2022-07-29T08:33:43;96140.00;;;22.87;100.00
10014;BME280;45684;48.358;10.746;2022-07-29T08:36:11;96148.31;;;22.91;99.35
10014;BME280;45684;48.358;10.746;2022-07-29T08:38:41;96151.44;;;22.93;97.33
10014;BME280;45684;48.358;10.746;2022-07-29T08:41:09;96153.41;;;22.96;96.55
10014;BME280;45684;48.358;10.746;2022-07-29T08:43:36;96153.78;;;23.05;97.29
10014;BME280;45684;48.358;10.746;2022-07-29T08:46:05;96154.97;;;22.86;96.07
10014;BME280;45684;48.358;10.746;2022-07-29T08:48:33;96149.84;;;23.10;98.07
10014;BME280;45684;48.358;10.746;2022-07-29T08:51:01;96152.56;;;23.21;97.76
10014;BME280;45684;48.358;10.746;2022-07-29T08:53:30;96145.78;;;23.39;95.63
10014;BME280;45684;48.358;10.746;2022-07-29T08:56:00;96157.59;;;23.43;96.81
10014;BME280;45684;48.358;10.746;2022-07-29T08:58:32;96159.56;;;23.47;96.65
10014;BME280;45684;48.358;10.746;2022-07-29T09:01:04;96158.34;;;23.55;96.80
10014;BME280;45684;48.358;10.746;2022-07-29T09:03:39;96163.47;;;23.60;97.90
10014;BME280;45684;48.358;10.746;2022-07-29T09:06:07;96157.13;;;23.59;96.81
10014;BME280;45684;48.358;10.746;2022-07-29T09:08:35;96162.72;;;23.49;95.48
10014;BME280;45684;48.358;10.746;2022-07-29T09:11:04;96167.09;;;23.35;95.79
10014;BME280;45684;48.358;10.746;2022-07-29T09:13:34;96162.34;;;23.39;97.30
10014;BME280;45684;48.358;10.746;2022-07-29T09:16:03;96157.94;;;23.67;96.98
10014;BME280;45684;48.358;10.746;2022-07-29T09:18:37;96158.69;;;23.78;96.73
10014;BME280;45684;48.358;10.746;2022-07-29T09:21:06;96154.59;;;24.01;94.86
10014;BME280;45684;48.358;10.746;2022-07-29T09:24:00;96157.16;;;24.29;92.66
10014;BME280;45684;48.358;10.746;2022-07-29T09:26:31;96161.22;;;24.14;92.73
10014;BME280;45684;48.358;10.746;2022-07-29T09:28:59;96161.13;;;24.28;91.49
10014;BME280;45684;48.358;10.746;2022-07-29T09:31:36;96164.72;;;24.25;90.25
10014;BME280;45684;48.358;10.746;2022-07-29T09:34:06;96171.91;;;24.12;88.75
10014;BME280;45684;48.358;10.746;2022-07-29T09:36:41;96171.03;;;24.22;85.29
10014;BME280;45684;48.358;10.746;2022-07-29T09:39:09;96166.88;;;24.52;84.63
10014;BME280;45684;48.358;10.746;2022-07-29T09:41:47;96168.19;;;24.85;83.79
10014;BME280;45684;48.358;10.746;2022-07-29T09:44:16;96163.25;;;25.03;81.47
10014;BME280;45684;48.358;10.746;2022-07-29T09:46:57;96151.72;;;25.15;81.09
10014;BME280;45684;48.358;10.746;2022-07-29T09:49:29;96161.72;;;24.99;79.61
10014;BME280;45684;48.358;10.746;2022-07-29T09:52:04;96158.59;;;24.97;81.55
10014;BME280;45684;48.358;10.746;2022-07-29T09:54:33;96156.06;;;25.13;81.57
10014;BME280;45684;48.358;10.746;2022-07-29T09:57:08;96153.78;;;25.42;79.11
10014;BME280;45684;48.358;10.746;2022-07-29T09:59:39;96155.31;;;25.47;75.98
10014;BME280;45684;48.358;10.746;2022-07-29T10:02:16;96158.72;;;25.58;77.03
10014;BME280;45684;48.358;10.746;2022-07-29T10:04:50;96160.06;;;25.80;79.04
10014;BME280;45684;48.358;10.746;2022-07-29T10:07:18;96167.91;;;25.85;77.68
10014;BME280;45684;48.358;10.746;2022-07-29T10:09:50;96168.28;;;26.14;77.29
10014;BME280;45684;48.358;10.746;2022-07-29T10:12:21;96165.47;;;26.18;77.98
10014;BME280;45684;48.358;10.746;2022-07-29T10:14:50;96161.91;;;26.17;76.38
10014;BME280;45684;48.358;10.746;2022-07-29T10:17:18;96165.56;;;26.65;76.08
10014;BME280;45684;48.358;10.746;2022-07-29T10:19:46;96160.94;;;26.58;73.62
10014;BME280;45684;48.358;10.746;2022-07-29T10:22:15;96159.19;;;26.41;75.07
10014;BME280;45684;48.358;10.746;2022-07-29T10:25:03;96159.59;;;26.66;74.56
10014;BME280;45684;48.358;10.746;2022-07-29T10:27:34;96167.38;;;26.75;72.69
10014;BME280;45684;48.358;10.746;2022-07-29T10:30:02;96156.78;;;26.90;73.44
10014;BME280;45684;48.358;10.746;2022-07-29T10:32:57;96152.69;;;26.98;71.71
10014;BME280;45684;48.358;10.746;2022-07-29T10:35:43;96157.75;;;27.03;70.91
10014;BME280;45684;48.358;10.746;2022-07-29T10:38:43;96140.13;;;27.13;70.56
10014;BME280;45684;48.358;10.746;2022-07-29T10:41:28;96138.59;;;27.32;72.40
10014;BME280;45684;48.358;10.746;2022-07-29T10:44:23;96139.31;;;27.76;68.08
10014;BME280;45684;48.358;10.746;2022-07-29T10:46:52;96136.50;;;27.96;65.95
10014;BME280;45684;48.358;10.746;2022-07-29T10:49:21;96142.88;;;28.29;64.41
10014;BME280;45684;48.358;10.746;2022-07-29T10:51:56;96149.22;;;28.30;61.96
10014;BME280;45684;48.358;10.746;2022-07-29T10:54:46;96134.66;;;28.58;59.79
10014;BME280;45684;48.358;10.746;2022-07-29T10:57:19;96130.91;;;28.32;60.06
10014;BME280;45684;48.358;10.746;2022-07-29T11:00:29;96123.81;;;28.64;57.87
10014;BME280;45684;48.358;10.746;2022-07-29T11:02:57;96128.41;;;28.70;58.18
10014;BME280;45684;48.358;10.746;2022-07-29T11:05:25;96127.06;;;28.91;55.06
10014;BME280;45684;48.358;10.746;2022-07-29T11:08:25;96124.75;;;28.57;55.72
10014;BME280;45684;48.358;10.746;2022-07-29T11:14:03;96108.13;;;29.44;51.43
10014;BME280;45684;48.358;10.746;2022-07-29T11:17:01;96104.22;;;29.96;47.76
10014;BME280;45684;48.358;10.746;2022-07-29T11:19:33;96092.16;;;30.51;48.14
10014;BME280;45684;48.358;10.746;2022-07-29T11:22:01;96096.00;;;30.31;46.50
10014;BME280;45684;48.358;10.746;2022-07-29T11:24:31;96091.94;;;29.81;42.07
10014;BME280;45684;48.358;10.746;2022-07-29T11:27:18;96094.75;;;29.39;44.95
10014;BME280;45684;48.358;10.746;2022-07-29T11:29:55;96105.50;;;28.79;46.81
10014;BME280;45684;48.358;10.746;2022-07-29T11:32:35;96100.50;;;28.41;46.70
10014;BME280;45684;48.358;10.746;2022-07-29T11:35:17;96098.25;;;28.36;49.51
10014;BME280;45684;48.358;10.746;2022-07-29T11:38:25;96094.50;;;28.43;49.37
10014;BME280;45684;48.358;10.746;2022-07-29T11:41:20;96102.28;;;28.81;49.57
10014;BME280;45684;48.358;10.746;2022-07-29T11:43:50;96099.91;;;28.95;50.11
10014;BME280;45684;48.358;10.746;2022-07-29T11:46:46;96095.72;;;29.04;50.84
10014;BME280;45684;48.358;10.746;2022-07-29T11:49:20;96097.31;;;29.46;47.33
10014;BME280;45684;48.358;10.746;2022-07-29T11:51:59;96097.31;;;29.46;47.60
10014;BME280;45684;48.358;10.746;2022-07-29T11:54:32;96086.78;;;29.25;45.81
10014;BME280;45684;48.358;10.746;2022-07-29T11:57:20;96100.09;;;28.88;45.47
10014;BME280;45684;48.358;10.746;2022-07-29T12:00:04;96092.22;;;28.70;47.25
10014;BME280;45684;48.358;10.746;2022-07-29T12:02:38;96088.94;;;28.43;47.70
10014;BME280;45684;48.358;10.746;2022-07-29T12:05:10;96093.38;;;28.40;47.04
10014;BME280;45684;48.358;10.746;2022-07-29T12:07:40;96090.28;;;28.18;49.35
10014;BME280;45684;48.358;10.746;2022-07-29T12:10:13;96086.03;;;28.14;47.07
10014;BME280;45684;48.358;10.746;2022-07-29T12:12:55;96088.00;;;27.81;45.16
10014;BME280;45684;48.358;10.746;2022-07-29T12:15:24;96084.44;;;27.80;44.52
10014;BME280;45684;48.358;10.746;2022-07-29T12:18:14;96074.81;;;27.85;45.29
10014;BME280;45684;48.358;10.746;2022-07-29T12:20:45;96071.81;;;27.56;49.26
10014;BME280;45684;48.358;10.746;2022-07-29T12:23:15;96073.59;;;27.66;52.22
10014;BME280;45684;48.358;10.746;2022-07-29T12:25:44;96068.91;;;27.63;50.27
10014;BME280;45684;48.358;10.746;2022-07-29T12:28:15;96072.19;;;27.58;48.43
10014;BME280;45684;48.358;10.746;2022-07-29T12:30:53;96072.50;;;27.43;44.50
10014;BME280;45684;48.358;10.746;2022-07-29T12:33:22;96071.94;;;27.32;44.82
10014;BME280;45684;48.358;10.746;2022-07-29T12:35:54;96075.22;;;27.27;45.87
10014;BME280;45684;48.358;10.746;2022-07-29T12:38:35;96078.94;;;27.20;45.31
10014;BME280;45684;48.358;10.746;2022-07-29T12:41:03;96076.97;;;26.98;48.00
10014;BME280;45684;48.358;10.746;2022-07-29T12:43:31;96086.13;;;26.75;46.66
10014;BME280;45684;48.358;10.746;2022-07-29T12:46:11;96084.16;;;26.71;46.46
10014;BME280;45684;48.358;10.746;2022-07-29T12:48:41;96068.16;;;26.59;46.77
10014;BME280;45684;48.358;10.746;2022-07-29T12:51:11;96079.03;;;26.50;47.85
10014;BME280;45684;48.358;10.746;2022-07-29T12:53:41;96079.00;;;26.27;46.41
10014;BME280;45684;48.358;10.746;2022-07-29T12:56:15;96079.22;;;26.12;44.96
10014;BME280;45684;48.358;10.746;2022-07-29T12:59:12;96084.91;;;26.02;45.90
10014;BME280;45684;48.358;10.746;2022-07-29T13:01:40;96078.41;;;25.88;45.26
10014;BME280;45684;48.358;10.746;2022-07-29T13:04:08;96075.69;;;25.85;46.61
10014;BME280;45684;48.358;10.746;2022-07-29T13:06:40;96070.53;;;25.83;45.91
10014;BME280;45684;48.358;10.746;2022-07-29T13:09:13;96077.38;;;25.75;47.29
10014;BME280;45684;48.358;10.746;2022-07-29T13:11:43;96078.38;;;25.61;46.77